aviador You're here:

GMMC Decoded Metar

CASABLANCA in MOROCCO
Report Time2018-06-18 15:00:00
UTC Time2018-06-18 15:25:40
Flight Rules vfr VFR
Wind280° at 16 kt
W.Rank280° ranks 10
Current wind is above 280° avg. (7.5)
Visibility9999 m
Phenomena:N/A
Clouds:N/A
Expected CloudBase > 2,000 ft AGL from Temp-Dew spread
CeilingNone
Temp23°C (ISA +8)
Dew Point18°C (74% RH)
AAT20.1°C
QNH1017 hPa
Density Alt1,319 ft
Elevation203 ft
Report Wrong Elevation
Raw Report
METAR GMMC 181500Z 28016KT CAVOK 23/18 Q1017=

Extra information for GMMC:More info

Metar Taf Metar & Taf Last 4 Metars F.Rules Stats Wind Profile Meteogram Temp Stats Airport Information Weather charts Add Link Nearby VenuesMetar ALERT Operation Metar Decoded Social comments